Time;durP1;ratioP1;P1;durP2;ratioP2;P2;SDS_P1;SDS_P2;PMS_P1;PMS_P2;Temp;Humidity;BMP_temperature;BMP_pressure;BME280_temperature;BME280_humidity;BME280_pressure;Samples;Min_cycle;Max_cycle;Signal;HPM_P1;HPM_P2
2023/08/28 00:02:07;;;;;;;;;4.00;4.00;;;;;-143.90;86.26;73708.78;4932804;28;102264;-74
2023/08/28 00:04:33;;;;;;;;;5.00;4.00;;;;;-143.90;85.96;73719.09;4933059;28;104244;-73
2023/08/28 00:07:00;;;;;;;;;2.00;2.00;;;;;-143.90;85.72;73737.69;4936767;28;102050;-75
2023/08/28 00:09:26;;;;;;;;;2.00;2.00;;;;;-143.90;85.82;73760.44;4930485;28;104631;-74
2023/08/28 00:11:54;;;;;;;;;4.00;3.00;;;;;-143.90;85.71;73754.25;4931488;28;103969;-74
2023/08/28 00:14:23;;;;;;;;;2.00;2.00;;;;;-143.90;85.57;73774.91;4937419;28;104534;-73
2023/08/28 00:16:50;;;;;;;;;2.00;2.00;;;;;-143.90;85.73;73772.84;4934856;28;102548;-74
2023/08/28 00:19:16;;;;;;;;;1.67;1.67;;;;;-143.90;85.78;73774.91;4927434;28;104143;-73
2023/08/28 00:21:43;;;;;;;;;2.00;2.00;;;;;-143.90;85.19;73748.03;4931557;28;103498;-74
2023/08/28 00:24:10;;;;;;;;;1.33;1.33;;;;;-143.90;85.09;73752.16;4932928;28;104123;-74
2023/08/28 00:26:36;;;;;;;;;2.00;1.00;;;;;-143.90;84.95;73766.63;4931512;28;102427;-74
2023/08/28 00:29:03;;;;;;;;;0.00;0.00;;;;;-143.90;84.36;73770.78;4935288;28;103615;-74
2023/08/28 00:31:30;;;;;;;;;1.00;1.00;;;;;-143.90;83.73;73770.78;4924000;28;102261;-74
2023/08/28 00:33:56;;;;;;;;;0.00;0.00;;;;;-143.90;83.17;73785.25;4920581;28;104558;-74
2023/08/28 00:36:23;;;;;;;;;1.00;1.00;;;;;-143.90;82.82;73797.63;4929398;27;101953;-75
2023/08/28 00:38:49;;;;;;;;;1.00;1.00;;;;;-143.90;81.63;73791.44;4931437;28;103163;-75
2023/08/28 00:41:16;;;;;;;;;0.00;0.00;;;;;-143.90;82.36;73814.16;4939195;28;103971;-77
2023/08/28 00:43:43;;;;;;;;;0.00;0.00;;;;;-143.90;80.65;73836.91;4928553;28;104460;-71
2023/08/28 00:46:10;;;;;;;;;0.00;0.00;;;;;-143.90;81.26;73849.31;4920366;28;103813;-71
2023/08/28 00:48:38;;;;;;;;;0.33;0.33;;;;;-143.90;81.40;73834.84;4935773;28;102127;-73
2023/08/28 00:51:05;;;;;;;;;0.00;0.00;;;;;-143.90;81.46;73824.50;4936571;28;102460;-74
2023/08/28 00:53:33;;;;;;;;;0.00;0.00;;;;;-143.90;81.51;73834.84;4934520;28;103709;-74
2023/08/28 00:56:00;;;;;;;;;0.00;0.00;;;;;-143.90;81.68;73834.84;4926821;28;104860;-75
2023/08/28 00:58:27;;;;;;;;;0.00;0.00;;;;;-143.90;81.52;73836.91;4937657;28;103454;-75
2023/08/28 01:00:54;;;;;;;;;0.00;0.00;;;;;-143.90;80.77;73841.03;4930509;28;103871;-74
2023/08/28 01:03:20;;;;;;;;;0.00;0.00;;;;;-143.90;81.33;73841.03;4930971;28;104120;-76
2023/08/28 01:06:31;;;;;;;;;0.00;0.00;;;;;-143.90;80.97;73849.31;4923304;28;102961;-74
2023/08/28 01:09:27;;;;;;;;;0.00;0.00;;;;;-143.90;81.13;73865.84;4920663;28;102190;-74
2023/08/28 01:12:51;;;;;;;;;1.00;0.00;;;;;-143.90;81.48;73878.25;4939554;28;104383;-73
2023/08/28 01:15:23;;;;;;;;;1.00;0.00;;;;;-143.90;81.60;73876.16;4876242;28;108651;-75
2023/08/28 01:17:58;;;;;;;;;0.00;0.00;;;;;-143.90;81.55;73882.38;4878213;28;102082;-74
2023/08/28 01:20:27;;;;;;;;;0.00;0.00;;;;;-143.90;81.42;73896.84;4908575;28;101900;-72
2023/08/28 01:22:57;;;;;;;;;0.00;0.00;;;;;-143.90;81.19;73907.16;4933478;28;104038;-75
2023/08/28 01:25:25;;;;;;;;;0.00;0.00;;;;;-143.90;81.10;73903.03;4930511;28;103970;-76
2023/08/28 01:27:52;;;;;;;;;0.67;0.67;;;;;-143.90;80.87;73896.84;4939223;28;104709;-73
2023/08/28 01:30:20;;;;;;;;;0.00;0.00;;;;;-143.90;81.02;73894.78;4944404;28;103179;-74
2023/08/28 01:32:47;;;;;;;;;0.00;0.00;;;;;-143.90;81.82;73903.03;4930159;28;102096;-74
2023/08/28 01:35:29;;;;;;;;;0.33;0.00;;;;;-143.90;81.53;73896.84;4921803;27;104050;-74
2023/08/28 01:38:19;;;;;;;;;0.00;0.00;;;;;-143.90;81.13;73903.03;4938487;28;102458;-74
2023/08/28 01:41:03;;;;;;;;;0.00;0.00;;;;;-143.90;81.22;73907.16;4935753;28;102341;-74
2023/08/28 01:43:45;;;;;;;;;0.00;0.00;;;;;-143.90;81.39;73903.03;4940402;28;102747;-76
2023/08/28 01:46:12;;;;;;;;;0.67;0.00;;;;;-143.90;81.48;73900.97;4933307;28;103961;-75
2023/08/28 01:48:53;;;;;;;;;0.00;0.00;;;;;-143.90;80.87;73911.31;4938733;28;102607;-75
2023/08/28 01:51:20;;;;;;;;;0.00;0.00;;;;;-143.90;81.37;73903.03;4927794;28;102640;-74
2023/08/28 01:53:48;;;;;;;;;0.00;0.00;;;;;-143.90;81.06;73898.91;4936540;28;104029;-74
2023/08/28 01:56:16;;;;;;;;;0.00;0.00;;;;;-143.90;80.92;73898.91;4923145;28;104132;-75
2023/08/28 01:58:45;;;;;;;;;0.00;0.00;;;;;-143.90;81.32;73911.31;4926973;28;102275;-76
2023/08/28 02:01:12;;;;;;;;;0.00;0.00;;;;;-143.90;80.97;73900.97;4930828;28;103867;-76
2023/08/28 02:03:39;;;;;;;;;0.00;0.00;;;;;-143.90;81.03;73890.63;4936970;28;102148;-75
2023/08/28 02:06:07;;;;;;;;;0.00;0.00;;;;;-143.90;81.04;73892.69;4934542;28;104136;-75
2023/08/28 02:08:34;;;;;;;;;0.00;0.00;;;;;-143.90;80.92;73894.78;4929494;28;102509;-75
2023/08/28 02:11:01;;;;;;;;;0.00;0.00;;;;;-143.90;80.84;73892.69;4942194;28;104308;-75
2023/08/28 02:13:27;;;;;;;;;0.00;0.00;;;;;-143.90;80.89;73886.50;4941259;28;102883;-75
2023/08/28 02:15:54;;;;;;;;;1.00;1.00;;;;;-143.90;81.07;73903.03;4939411;28;104167;-75
2023/08/28 02:18:21;;;;;;;;;0.00;0.00;;;;;-143.90;81.46;73911.31;4939822;28;101975;-75
2023/08/28 02:20:48;;;;;;;;;0.00;0.00;;;;;-143.90;80.94;73919.56;4937031;28;102545;-75
2023/08/28 02:23:15;;;;;;;;;0.33;0.00;;;;;-143.90;81.10;73919.56;4932757;28;104899;-75
2023/08/28 02:25:46;;;;;;;;;0.00;0.00;;;;;-143.90;81.36;73921.63;4930945;28;104021;-76
2023/08/28 02:28:13;;;;;;;;;0.00;0.00;;;;;-143.90;81.80;73921.63;4929201;28;102487;-75
2023/08/28 02:30:39;;;;;;;;;0.00;0.00;;;;;-143.90;81.84;73915.44;4938194;28;102887;-76
2023/08/28 02:33:06;;;;;;;;;0.00;0.00;;;;;-143.90;82.26;73911.31;4926446;28;102888;-75
2023/08/28 02:35:33;;;;;;;;;0.00;0.00;;;;;-143.90;81.91;73919.56;4931369;28;104031;-76
2023/08/28 02:37:59;;;;;;;;;0.00;0.00;;;;;-143.90;82.27;73923.72;4937876;28;102005;-76
2023/08/28 02:40:26;;;;;;;;;0.00;0.00;;;;;-143.90;81.49;73927.84;4935879;28;101945;-76
2023/08/28 02:42:53;;;;;;;;;0.00;0.00;;;;;-143.90;81.19;73923.72;4936859;28;104097;-76
2023/08/28 02:45:20;;;;;;;;;0.00;0.00;;;;;-143.90;80.30;73925.78;4929857;28;104015;-76
2023/08/28 02:47:47;;;;;;;;;0.00;0.00;;;;;-143.90;80.42;73923.72;4933075;28;102093;-75
2023/08/28 02:50:13;;;;;;;;;0.00;0.00;;;;;-143.90;80.84;73927.84;4933593;28;102437;-75
2023/08/28 02:52:40;;;;;;;;;0.00;0.00;;;;;-143.90;80.54;73929.91;4919914;28;107550;-75
2023/08/28 02:55:07;;;;;;;;;0.00;0.00;;;;;-143.90;80.40;73927.84;4922471;28;104188;-74
2023/08/28 02:57:34;;;;;;;;;0.00;0.00;;;;;-143.90;80.42;73923.72;4925671;28;102096;-75
2023/08/28 03:00:00;;;;;;;;;0.00;0.00;;;;;-143.90;80.08;73921.63;4929636;28;102141;-75
2023/08/28 03:02:27;;;;;;;;;0.00;0.00;;;;;-143.90;79.97;73923.72;4935863;28;102863;-75
2023/08/28 03:04:54;;;;;;;;;0.00;0.00;;;;;-143.90;80.49;73925.78;4932808;28;103987;-74
2023/08/28 03:07:20;;;;;;;;;0.00;0.00;;;;;-143.90;79.33;73936.09;4939558;28;102734;-75
2023/08/28 03:09:47;;;;;;;;;0.00;0.00;;;;;-143.90;80.17;73927.84;4939184;28;103100;-75
2023/08/28 03:12:14;;;;;;;;;0.00;0.00;;;;;-143.90;79.89;73927.84;4932446;28;102086;-75
2023/08/28 03:14:40;;;;;;;;;0.00;0.00;;;;;-143.90;80.25;73934.03;4932327;28;104390;-74
2023/08/28 03:17:07;;;;;;;;;0.00;0.00;;;;;-143.90;79.84;73936.09;4953307;28;101998;-75
2023/08/28 03:19:34;;;;;;;;;0.00;0.00;;;;;-143.90;79.85;73929.91;4924391;28;102621;-74
2023/08/28 03:22:00;;;;;;;;;0.00;0.00;;;;;-143.90;80.17;73921.63;4925109;28;102835;-75
2023/08/28 03:24:27;;;;;;;;;0.00;0.00;;;;;-143.90;80.14;73917.50;4945694;28;103574;-75
2023/08/28 03:26:54;;;;;;;;;0.00;0.00;;;;;-143.90;80.18;73907.16;4948605;28;102469;-74
2023/08/28 03:29:20;;;;;;;;;0.00;0.00;;;;;-143.90;80.05;73907.16;4934717;28;102826;-74
2023/08/28 03:31:47;;;;;;;;;0.00;0.00;;;;;-143.90;79.63;73907.16;4946660;28;104039;-74
2023/08/28 03:34:13;;;;;;;;;0.00;0.00;;;;;-143.90;79.66;73894.78;4928641;28;104085;-75
2023/08/28 03:36:41;;;;;;;;;0.00;0.00;;;;;-143.90;80.41;73894.78;4928135;28;108358;-75
2023/08/28 03:39:08;;;;;;;;;0.00;0.00;;;;;-143.90;79.89;73907.16;4932393;28;102479;-75
2023/08/28 03:41:35;;;;;;;;;0.00;0.00;;;;;-143.90;80.53;73919.56;4939642;28;102512;-75
2023/08/28 03:44:02;;;;;;;;;0.00;0.00;;;;;-143.90;80.23;73919.56;4940912;28;104181;-75
2023/08/28 03:46:28;;;;;;;;;0.00;0.00;;;;;-143.90;80.01;73927.84;4918386;28;102481;-75
2023/08/28 03:48:55;;;;;;;;;0.00;0.00;;;;;-143.90;79.70;73931.97;4934414;28;104207;-75
2023/08/28 03:51:22;;;;;;;;;0.00;0.00;;;;;-143.90;80.41;73929.91;4949278;28;102332;-75
2023/08/28 03:53:48;;;;;;;;;1.00;0.00;;;;;-143.90;80.12;73929.91;4926290;28;104071;-75
2023/08/28 03:56:15;;;;;;;;;0.00;0.00;;;;;-143.90;80.25;73931.97;4931068;28;101976;-75
2023/08/28 03:58:41;;;;;;;;;0.00;0.00;;;;;-143.90;80.33;73927.84;4937568;28;103548;-75
2023/08/28 04:01:08;;;;;;;;;0.00;0.00;;;;;-143.90;80.26;73934.03;4930295;28;103964;-75
2023/08/28 04:03:35;;;;;;;;;0.00;0.00;;;;;-143.90;81.05;73948.50;4936363;28;104188;-74
2023/08/28 04:06:01;;;;;;;;;0.00;0.00;;;;;-143.90;81.32;73946.44;4922491;28;102417;-75
2023/08/28 04:08:28;;;;;;;;;0.00;0.00;;;;;-143.90;81.39;73944.38;4927619;28;102127;-74
2023/08/28 04:10:58;;;;;;;;;0.00;0.00;;;;;-143.90;81.29;73952.63;4941490;28;102570;-74
2023/08/28 04:13:25;;;;;;;;;0.00;0.00;;;;;-143.90;81.48;73952.63;4938376;28;104390;-75
2023/08/28 04:15:52;;;;;;;;;0.00;0.00;;;;;-143.90;81.70;73954.72;4924526;28;102367;-77
2023/08/28 04:18:18;;;;;;;;;0.00;0.00;;;;;-143.90;82.20;73952.63;4929395;28;102854;-76
2023/08/28 04:20:45;;;;;;;;;0.00;0.00;;;;;-143.90;81.97;73956.78;4939687;28;103849;-76
2023/08/28 04:23:13;;;;;;;;;1.00;0.00;;;;;-143.90;82.30;73950.56;4934670;28;104095;-74
2023/08/28 04:25:39;;;;;;;;;0.00;0.00;;;;;-143.90;81.93;73958.84;4927333;28;102218;-76
2023/08/28 04:28:06;;;;;;;;;0.00;0.00;;;;;-143.90;82.29;73958.84;4923439;28;102627;-76
2023/08/28 04:30:33;;;;;;;;;0.00;0.00;;;;;-143.90;82.18;73969.19;4926324;28;102539;-77
2023/08/28 04:32:59;;;;;;;;;0.00;0.00;;;;;-143.90;81.77;73973.31;4932624;28;104074;-76
2023/08/28 04:35:26;;;;;;;;;0.00;0.00;;;;;-143.90;81.79;73979.50;4932219;28;102645;-76
2023/08/28 04:37:53;;;;;;;;;0.00;0.00;;;;;-143.90;81.97;73989.84;4929319;28;102046;-78
2023/08/28 04:40:19;;;;;;;;;0.00;0.00;;;;;-143.90;81.88;73996.03;4926757;28;103139;-78
2023/08/28 04:42:46;;;;;;;;;0.00;0.00;;;;;-143.90;82.51;74002.25;4931207;28;104348;-78
2023/08/28 04:45:13;;;;;;;;;0.00;0.00;;;;;-143.90;82.81;73989.84;4930435;28;102590;-78
2023/08/28 04:47:39;;;;;;;;;0.00;0.00;;;;;-143.90;82.65;73979.50;4928294;28;102155;-78
2023/08/28 04:50:06;;;;;;;;;0.00;0.00;;;;;-143.90;82.46;73965.03;4941387;28;103903;-78
2023/08/28 04:52:33;;;;;;;;;0.00;0.00;;;;;-143.90;82.72;73962.97;4930130;28;104127;-78
2023/08/28 04:55:00;;;;;;;;;0.00;0.00;;;;;-143.90;82.00;73969.19;4946207;28;102289;-77
2023/08/28 04:57:29;;;;;;;;;0.00;0.00;;;;;-143.90;83.51;73985.72;4934879;28;101979;-76
2023/08/28 04:59:55;;;;;;;;;1.00;1.00;;;;;-143.90;83.78;73962.97;4932610;28;102917;-78
2023/08/28 05:02:22;;;;;;;;;0.33;0.00;;;;;-143.90;83.40;73954.72;4926693;28;104117;-76
2023/08/28 05:04:48;;;;;;;;;0.33;0.00;;;;;-143.90;83.16;73958.84;4921880;28;103937;-76
2023/08/28 05:07:15;;;;;;;;;0.33;0.00;;;;;-143.90;82.74;73954.72;4922867;28;102322;-76
2023/08/28 05:09:42;;;;;;;;;0.00;0.00;;;;;-143.90;83.09;73956.78;4928297;28;102496;-76
2023/08/28 05:12:08;;;;;;;;;0.00;0.00;;;;;-143.90;82.98;73960.91;4929292;28;103807;-76
2023/08/28 05:14:35;;;;;;;;;0.67;0.67;;;;;-143.90;83.60;73969.19;4927957;28;102351;-77
2023/08/28 05:17:01;;;;;;;;;0.00;0.00;;;;;-143.90;83.14;73962.97;4933609;28;102021;-77
2023/08/28 05:19:28;;;;;;;;;0.00;0.00;;;;;-143.90;83.42;73960.91;4939022;28;102057;-77
2023/08/28 05:21:55;;;;;;;;;1.00;1.00;;;;;-143.90;84.56;73950.56;4943520;28;104587;-77
2023/08/28 05:24:22;;;;;;;;;0.00;0.00;;;;;-143.90;84.61;73944.38;4927211;28;101918;-79
2023/08/28 05:26:52;;;;;;;;;0.00;0.00;;;;;-143.90;84.27;73940.25;4938885;28;102206;-78
2023/08/28 05:29:18;;;;;;;;;0.00;0.00;;;;;-143.90;84.71;73936.09;4951423;28;102072;-79
2023/08/28 05:31:45;;;;;;;;;0.00;0.00;;;;;-143.90;84.73;73936.09;4930507;28;104085;-79
2023/08/28 05:34:12;;;;;;;;;0.00;0.00;;;;;-143.90;84.54;73931.97;4932235;28;102307;-79
2023/08/28 05:36:38;;;;;;;;;0.00;0.00;;;;;-143.90;84.49;73936.09;4931300;28;102568;-79
2023/08/28 05:39:05;;;;;;;;;1.00;0.00;;;;;-143.90;84.17;73934.03;4938889;28;102448;-79
2023/08/28 05:41:32;;;;;;;;;0.00;0.00;;;;;-143.90;84.33;73948.50;4935335;28;104003;-78
2023/08/28 05:43:58;;;;;;;;;1.67;1.67;;;;;-143.90;84.77;73944.38;4935825;28;102262;-78
2023/08/28 05:46:25;;;;;;;;;0.00;0.00;;;;;-143.90;84.89;73942.31;4932841;28;103869;-78
2023/08/28 05:48:52;;;;;;;;;0.00;0.00;;;;;-143.90;85.30;73940.25;4932539;28;102649;-78
2023/08/28 05:51:18;;;;;;;;;1.00;1.00;;;;;-143.90;85.71;73940.25;4934551;28;104195;-79
2023/08/28 05:53:45;;;;;;;;;1.00;0.00;;;;;-143.90;85.56;73940.25;4935270;28;102602;-78
2023/08/28 05:56:12;;;;;;;;;2.67;2.00;;;;;-143.90;84.26;73934.03;4954185;28;101797;-78
2023/08/28 05:58:38;;;;;;;;;2.00;2.00;;;;;-143.90;84.73;73929.91;4939369;28;102343;-78
2023/08/28 06:01:05;;;;;;;;;1.00;1.00;;;;;-143.90;85.33;73931.97;4943977;28;108764;-78
2023/08/28 06:03:32;;;;;;;;;1.33;1.00;;;;;-143.90;85.50;73942.31;4927591;28;102030;-78
2023/08/28 06:05:58;;;;;;;;;2.00;1.00;;;;;-143.90;85.33;73938.19;4935461;28;102343;-78
2023/08/28 06:08:25;;;;;;;;;0.00;0.00;;;;;-143.90;84.41;73940.25;4931936;28;102539;-78
2023/08/28 06:10:52;;;;;;;;;1.00;1.00;;;;;-143.90;84.77;73929.91;4934848;28;104149;-78
2023/08/28 06:13:18;;;;;;;;;0.00;0.00;;;;;-143.90;85.02;73927.84;4928756;28;101894;-78
2023/08/28 06:15:45;;;;;;;;;0.00;0.00;;;;;-143.90;85.76;73923.72;4935189;28;104670;-78
2023/08/28 06:18:12;;;;;;;;;0.00;0.00;;;;;-143.90;85.69;73929.91;4926659;28;102249;-79
2023/08/28 06:20:39;;;;;;;;;1.00;0.00;;;;;-143.90;85.19;73927.84;4932456;28;104022;-78
2023/08/28 06:23:05;;;;;;;;;1.33;1.00;;;;;-143.90;84.84;73921.63;4936770;28;102393;-78
2023/08/28 06:25:32;;;;;;;;;0.00;0.00;;;;;-143.90;85.30;73917.50;4930843;28;102391;-78
2023/08/28 06:27:59;;;;;;;;;1.00;1.00;;;;;-143.90;84.47;73921.63;4933466;28;102334;-78
2023/08/28 06:30:25;;;;;;;;;1.00;1.00;;;;;-143.90;84.78;73915.44;4934906;28;104312;-78
2023/08/28 06:32:54;;;;;;;;;2.00;2.00;;;;;-143.90;84.02;73919.56;4944178;28;102244;-78
2023/08/28 06:35:21;;;;;;;;;0.00;0.00;;;;;-143.90;82.96;73923.72;4946339;28;102188;-78
2023/08/28 06:37:48;;;;;;;;;0.00;0.00;;;;;-143.90;83.54;73911.31;4931315;28;101969;-78
2023/08/28 06:40:14;;;;;;;;;1.00;1.00;;;;;-143.90;83.04;73911.31;4928905;28;104165;-78
2023/08/28 06:42:41;;;;;;;;;1.00;1.00;;;;;-143.90;83.19;73903.03;4939224;28;102285;-78
2023/08/28 06:45:08;;;;;;;;;1.00;1.00;;;;;-143.90;82.83;73900.97;4944385;28;102629;-78
2023/08/28 06:47:35;;;;;;;;;0.33;0.33;;;;;-143.90;82.29;73907.16;4933604;28;102079;-78
2023/08/28 06:50:01;;;;;;;;;1.00;1.00;;;;;-143.90;81.74;73909.25;4934315;28;104375;-78
2023/08/28 06:52:28;;;;;;;;;1.00;1.00;;;;;-143.90;82.20;73909.25;4938268;28;102096;-78
2023/08/28 06:54:55;;;;;;;;;1.00;1.00;;;;;-143.90;81.46;73923.72;4930493;28;101808;-77
2023/08/28 06:57:21;;;;;;;;;0.67;0.00;;;;;-143.90;81.69;73911.31;4935759;28;102256;-78
2023/08/28 06:59:49;;;;;;;;;1.00;0.33;;;;;-143.90;81.27;73905.09;4930741;28;104198;-78
2023/08/28 07:02:15;;;;;;;;;0.00;0.00;;;;;-143.90;82.19;73911.31;4934482;28;102599;-78
2023/08/28 07:04:42;;;;;;;;;1.00;0.00;;;;;-143.90;82.43;73898.91;4943556;28;102673;-78
2023/08/28 07:07:09;;;;;;;;;1.00;1.00;;;;;-143.90;82.20;73898.91;4933717;28;102349;-78
2023/08/28 07:09:38;;;;;;;;;0.00;0.00;;;;;-143.90;82.10;73909.25;4933617;28;104279;-78
2023/08/28 07:12:05;;;;;;;;;1.67;1.67;;;;;-143.90;81.70;73907.16;4936410;28;102390;-78
2023/08/28 07:14:32;;;;;;;;;1.00;1.00;;;;;-143.90;81.57;73903.03;4945700;28;104378;-79
2023/08/28 07:16:59;;;;;;;;;1.00;1.00;;;;;-143.90;82.26;73894.78;4930951;28;102273;-78
2023/08/28 07:19:25;;;;;;;;;1.00;1.00;;;;;-143.90;82.02;73886.50;4925556;28;104136;-78
2023/08/28 07:21:52;;;;;;;;;1.33;0.33;;;;;-143.90;81.77;73890.63;4933083;28;102008;-79
2023/08/28 07:24:19;;;;;;;;;0.00;0.00;;;;;-143.90;82.38;73884.44;4932630;28;102159;-78
2023/08/28 07:26:46;;;;;;;;;0.00;0.00;;;;;-143.90;82.07;73878.25;4932171;28;102595;-78
2023/08/28 07:29:12;;;;;;;;;1.00;1.00;;;;;-143.90;82.09;73882.38;4934588;28;104346;-78
2023/08/28 07:31:39;;;;;;;;;0.00;0.00;;;;;-143.90;83.10;73874.09;4929594;28;102086;-78
2023/08/28 07:34:05;;;;;;;;;1.00;0.00;;;;;-143.90;82.68;73872.03;4936060;28;103676;-78
2023/08/28 07:36:32;;;;;;;;;1.00;0.33;;;;;-143.90;81.91;73861.69;4933067;28;102217;-78
2023/08/28 07:38:59;;;;;;;;;1.67;1.00;;;;;-143.90;80.55;73857.56;4927005;28;104388;-78
2023/08/28 07:41:25;;;;;;;;;2.00;1.00;;;;;-143.90;81.07;73849.31;4938943;28;102420;-78
2023/08/28 07:43:52;;;;;;;;;0.00;0.00;;;;;-143.90;81.20;73841.03;4935255;28;101977;-78
2023/08/28 07:46:19;;;;;;;;;1.00;1.00;;;;;-143.90;81.10;73830.69;4934131;28;101993;-78
2023/08/28 07:48:45;;;;;;;;;1.00;1.00;;;;;-143.90;80.93;73832.78;4932746;28;109019;-78
2023/08/28 07:51:12;;;;;;;;;1.00;1.00;;;;;-143.90;80.50;73820.38;4932269;28;102383;-78
2023/08/28 07:53:39;;;;;;;;;0.67;0.67;;;;;-143.90;80.50;73810.03;4941089;28;102372;-78
2023/08/28 07:56:06;;;;;;;;;2.00;2.00;;;;;-143.90;79.70;73807.97;4928066;28;102540;-79
2023/08/28 07:58:33;;;;;;;;;2.00;2.00;;;;;-143.90;79.85;73807.97;4934219;28;104114;-79
2023/08/28 08:01:00;;;;;;;;;2.00;2.00;;;;;-143.90;80.11;73810.03;4931287;28;102043;-79
2023/08/28 08:03:27;;;;;;;;;3.33;3.33;;;;;-143.90;80.37;73816.25;4930035;28;102942;-79
2023/08/28 08:05:55;;;;;;;;;2.67;2.67;;;;;-143.90;79.82;73826.56;4935658;28;102295;-79
2023/08/28 08:08:22;;;;;;;;;2.00;2.00;;;;;-143.90;79.95;73822.44;4938652;28;104072;-79
2023/08/28 08:10:49;;;;;;;;;0.67;0.67;;;;;-143.90;79.58;73828.63;4932938;28;101908;-78
2023/08/28 08:13:17;;;;;;;;;2.00;2.00;;;;;-143.90;80.05;73824.50;4929097;28;101896;-77
2023/08/28 08:15:44;;;;;;;;;1.33;1.33;;;;;-143.90;80.50;73824.50;4942983;28;103540;-79
2023/08/28 08:18:10;;;;;;;;;2.00;2.00;;;;;-143.90;79.39;73830.69;4938735;28;104189;-79
2023/08/28 08:20:37;;;;;;;;;3.00;3.00;;;;;-143.90;77.40;73838.97;4938194;28;102849;-79
2023/08/28 08:23:04;;;;;;;;;5.00;3.00;;;;;-143.90;78.95;73834.84;4930053;28;103065;-80
2023/08/28 08:25:33;;;;;;;;;1.00;1.00;;;;;-143.90;79.06;73824.50;4941976;28;102904;-79
2023/08/28 08:28:02;;;;;;;;;1.00;1.00;;;;;-143.90;79.42;73836.91;4934892;28;104107;-78
2023/08/28 08:30:29;;;;;;;;;2.00;2.00;;;;;-143.90;79.10;73834.84;4941735;28;101907;-78
2023/08/28 08:32:56;;;;;;;;;1.00;1.00;;;;;-143.90;79.37;73824.50;4938090;28;101824;-78
2023/08/28 08:35:23;;;;;;;;;2.00;2.00;;;;;-143.90;78.22;73828.63;4937462;28;102322;-78
2023/08/28 08:37:52;;;;;;;;;2.00;2.00;;;;;-143.90;77.37;73818.31;4934676;28;109421;-78
2023/08/28 08:40:24;;;;;;;;;3.00;2.67;;;;;-143.90;77.65;73810.03;4937845;28;102331;-78
2023/08/28 08:42:52;;;;;;;;;1.33;1.33;;;;;-143.90;77.40;73799.69;4933018;28;102478;-79
2023/08/28 08:45:23;;;;;;;;;2.00;1.67;;;;;-143.90;76.80;73795.56;4930780;28;102019;-79
2023/08/28 08:47:54;;;;;;;;;2.00;2.00;;;;;-143.90;77.16;73783.16;4936776;28;108867;-78
2023/08/28 08:50:24;;;;;;;;;3.00;3.00;;;;;-143.90;75.84;73779.03;4948312;28;101861;-79
2023/08/28 08:52:51;;;;;;;;;2.00;2.00;;;;;-143.90;76.47;73766.63;4930444;28;102468;-79
2023/08/28 08:55:32;;;;;;;;;1.67;1.00;;;;;-143.90;75.94;73760.44;4930124;27;102481;-79
2023/08/28 08:58:02;;;;;;;;;0.00;0.00;;;;;-143.90;75.84;73762.50;4942622;28;108870;-80
2023/08/28 09:00:29;;;;;;;;;1.00;1.00;;;;;-143.90;76.07;73766.63;4937621;28;102046;-79
2023/08/28 09:02:56;;;;;;;;;1.00;1.00;;;;;-143.90;75.66;73766.63;4943610;28;102110;-79
2023/08/28 09:05:24;;;;;;;;;2.00;2.00;;;;;-143.90;75.45;73766.63;4940437;28;102349;-79
2023/08/28 09:07:52;;;;;;;;;1.00;1.00;;;;;-143.90;76.06;73770.78;4934644;28;109795;-79
2023/08/28 09:10:19;;;;;;;;;2.67;2.00;;;;;-143.90;76.57;73776.97;4941064;28;102354;-79
2023/08/28 09:12:46;;;;;;;;;1.00;1.00;;;;;-143.90;77.04;73770.78;4931522;28;102348;-80
2023/08/28 09:15:14;;;;;;;;;1.00;1.00;;;;;-143.90;76.13;73774.91;4927293;28;101979;-80
2023/08/28 09:17:41;;;;;;;;;3.00;1.00;;;;;-143.90;75.84;73768.69;4934197;28;103953;-79
2023/08/28 09:20:16;;;;;;;;;1.00;1.00;;;;;-143.90;75.80;73768.69;4918624;28;102238;-79
2023/08/28 09:22:48;;;;;;;;;3.00;3.00;;;;;-143.90;74.90;73774.91;4905551;28;101936;-79
2023/08/28 09:25:22;;;;;;;;;2.00;2.00;;;;;-143.90;74.49;73762.50;4941015;28;102187;-80
2023/08/28 09:27:52;;;;;;;;;4.00;4.00;;;;;-143.90;73.94;73764.56;4931982;28;103937;-80
2023/08/28 09:30:29;;;;;;;;;4.00;4.00;;;;;-143.90;74.24;73745.97;4930128;28;102382;-79
2023/08/28 09:33:00;;;;;;;;;6.33;6.00;;;;;-143.90;73.24;73731.50;4932072;28;102552;-79
2023/08/28 09:35:29;;;;;;;;;3.67;3.33;;;;;-143.90;73.08;73723.22;4943067;28;102285;-80
2023/08/28 09:38:00;;;;;;;;;4.00;3.33;;;;;-143.90;72.77;73696.38;4950844;28;108869;-80
2023/08/28 09:40:29;;;;;;;;;7.00;6.00;;;;;-143.90;72.74;73692.25;4937583;28;102243;-79
2023/08/28 09:43:00;;;;;;;;;6.67;6.33;;;;;-143.90;72.79;73675.69;4939650;28;102454;-79
2023/08/28 09:45:34;;;;;;;;;4.33;3.00;;;;;-143.90;73.10;73679.84;4937977;28;102029;-80
2023/08/28 09:48:05;;;;;;;;;6.33;5.00;;;;;-143.90;72.48;73681.91;4934404;28;108904;-80
2023/08/28 09:50:33;;;;;;;;;8.33;7.33;;;;;-143.90;72.85;73683.97;4947797;28;102189;-80
2023/08/28 09:53:11;;;;;;;;;8.67;7.00;;;;;-143.90;72.14;73683.97;4931564;28;102118;-80
2023/08/28 09:55:49;;;;;;;;;8.67;7.33;;;;;-143.90;71.94;73692.25;4937639;28;102532;-79
2023/08/28 09:58:17;;;;;;;;;6.67;6.67;;;;;-143.90;71.97;73704.63;4932063;28;104092;-79
2023/08/28 10:00:44;;;;;;;;;5.00;5.00;;;;;-143.90;72.79;73690.16;4944024;28;102319;-79
2023/08/28 10:03:12;;;;;;;;;4.00;4.00;;;;;-143.90;72.76;73692.25;4925127;28;102053;-79
2023/08/28 10:05:41;;;;;;;;;3.33;3.00;;;;;-143.90;73.15;73679.84;4935839;28;102108;-79
2023/08/28 10:08:12;;;;;;;;;5.67;5.33;;;;;-143.90;70.85;73692.25;4914807;28;104032;-78
2023/08/28 10:10:47;;;;;;;;;7.33;6.00;;;;;-143.90;72.24;73704.63;4939197;28;102127;-78
2023/08/28 10:13:16;;;;;;;;;6.00;6.00;;;;;-143.90;72.05;73708.78;4937184;28;102297;-78
2023/08/28 10:15:53;;;;;;;;;5.00;5.00;;;;;-143.90;72.07;73706.69;4937473;28;103518;-78
2023/08/28 10:18:25;;;;;;;;;8.00;7.33;;;;;-143.90;71.47;73700.50;4931439;28;104222;-78
2023/08/28 10:20:53;;;;;;;;;7.00;7.00;;;;;-143.90;71.67;73704.63;4934088;28;102677;-78
2023/08/28 10:23:21;;;;;;;;;8.00;7.67;;;;;-143.90;72.86;73690.16;4941844;28;102061;-79
2023/08/28 10:25:51;;;;;;;;;7.00;7.00;;;;;-143.90;72.24;73673.63;4937078;28;102399;-80
2023/08/28 10:28:19;;;;;;;;;7.00;5.33;;;;;-143.90;72.39;73659.16;4935778;28;104085;-79
2023/08/28 10:30:48;;;;;;;;;9.00;8.67;;;;;-143.90;72.75;73652.97;4939851;28;102486;-78
2023/08/28 10:33:18;;;;;;;;;9.00;8.00;;;;;-143.90;72.62;73659.16;4934030;28;101962;-79
2023/08/28 10:35:49;;;;;;;;;6.00;6.00;;;;;-143.90;73.40;73642.63;4951061;28;101930;-78
2023/08/28 10:38:19;;;;;;;;;6.00;6.00;;;;;-143.90;72.69;73638.50;4938680;28;104013;-78
2023/08/28 10:40:51;;;;;;;;;9.33;7.33;;;;;-143.90;71.17;73644.69;4932632;28;102347;-79
2023/08/28 10:43:20;;;;;;;;;9.33;8.33;;;;;-143.90;71.48;73638.50;4942183;28;102294;-79
2023/08/28 10:45:48;;;;;;;;;5.33;5.33;;;;;-143.90;71.47;73628.16;4946556;28;104092;-79
2023/08/28 10:48:16;;;;;;;;;3.33;3.33;;;;;-143.90;71.66;73632.31;4944243;28;104175;-79
2023/08/28 10:50:43;;;;;;;;;4.00;4.00;;;;;-143.90;71.71;73636.44;4931159;28;102020;-79
2023/08/28 10:53:14;;;;;;;;;4.33;3.33;;;;;-143.90;72.13;73640.56;4929200;28;102207;-79
2023/08/28 10:55:56;;;;;;;;;6.00;5.00;;;;;-143.90;71.04;73640.56;4943867;28;102305;-79
2023/08/28 10:58:24;;;;;;;;;4.67;4.00;;;;;-143.90;70.98;73640.56;4936388;28;105164;-79
2023/08/28 11:01:16;;;;;;;;;4.00;4.00;;;;;-143.90;71.79;73630.25;4929572;28;102322;-79
2023/08/28 11:04:01;;;;;;;;;4.00;4.00;;;;;-143.90;70.40;73630.25;4925102;28;101997;-79
2023/08/28 11:06:35;;;;;;;;;6.00;5.33;;;;;-143.90;71.29;73621.97;4938973;28;101934;-79
2023/08/28 11:09:27;;;;;;;;;6.00;5.00;;;;;-143.90;71.09;73617.84;4931066;28;104054;-78
2023/08/28 11:12:00;;;;;;;;;4.00;3.00;;;;;-143.90;71.44;73613.72;4928639;28;102313;-80
2023/08/28 11:14:34;;;;;;;;;7.00;6.00;;;;;-143.90;71.11;73597.16;4939947;28;108969;-79
2023/08/28 11:17:07;;;;;;;;;5.67;5.00;;;;;-143.90;70.39;73584.78;4933319;28;102924;-78